Time;durP1;ratioP1;P1;durP2;ratioP2;P2;SDS_P1;SDS_P2;PMS_P1;PMS_P2;Temp;Humidity;BMP_temperature;BMP_pressure;BME280_temperature;BME280_humidity;BME280_pressure;Samples;Min_cycle;Max_cycle;Signal;HPM_P1;HPM_P2
2024/02/08 00:02:05;;;;;;;4.65;3.30;;;7.10;99.90;;;;;;5133426;27;20695;-80
2024/02/08 00:04:34;;;;;;;13.00;3.67;;;7.10;99.90;;;;;;5134146;27;20221;-75
2024/02/08 00:07:02;;;;;;;8.80;4.00;;;7.10;99.90;;;;;;5133738;27;20282;-78
2024/02/08 00:09:40;;;;;;;8.18;4.25;;;7.00;99.90;;;;;;5133547;28;20274;-77
2024/02/08 00:12:08;;;;;;;7.80;3.80;;;7.00;99.90;;;;;;5133192;28;20217;-77
2024/02/08 00:14:35;;;;;;;8.60;4.13;;;7.00;99.90;;;;;;5133690;28;20780;-80
2024/02/08 00:17:04;;;;;;;5.95;3.72;;;6.90;99.90;;;;;;5133923;28;20228;-78
2024/02/08 00:19:31;;;;;;;8.73;3.92;;;6.90;99.90;;;;;;5122071;28;20229;-80
2024/02/08 00:21:58;;;;;;;7.72;4.20;;;6.90;99.90;;;;;;5113192;28;20229;-75
2024/02/08 00:24:30;;;;;;;7.30;3.65;;;6.90;99.90;;;;;;5112233;28;20218;-80
2024/02/08 00:26:58;;;;;;;3.88;3.00;;;6.90;99.90;;;;;;5113108;28;20236;-77
2024/02/08 00:29:25;;;;;;;6.40;3.53;;;6.90;99.90;;;;;;5112463;28;20604;-77
2024/02/08 00:31:52;;;;;;;5.28;3.10;;;6.90;99.90;;;;;;5130073;28;20225;-79
2024/02/08 00:34:21;;;;;;;6.78;3.30;;;6.90;99.90;;;;;;5133314;28;20273;-79
2024/02/08 00:36:51;;;;;;;7.32;3.58;;;6.90;99.90;;;;;;5133512;28;20218;-77
2024/02/08 00:39:18;;;;;;;4.35;3.78;;;6.90;99.90;;;;;;5133692;27;20681;-77
2024/02/08 00:41:50;;;;;;;11.07;6.13;;;6.80;99.90;;;;;;5137869;27;20225;-77
2024/02/08 00:44:17;;;;;;;10.40;4.10;;;6.80;99.90;;;;;;5137263;27;20264;-80
2024/02/08 00:46:51;;;;;;;11.18;4.20;;;6.80;99.90;;;;;;5138004;27;20232;-77
2024/02/08 00:49:21;;;;;;;11.30;4.55;;;6.80;99.90;;;;;;5136993;27;20218;-80
2024/02/08 00:51:49;;;;;;;5.18;3.53;;;6.80;99.90;;;;;;5137746;27;20220;-79
2024/02/08 00:54:16;;;;;;;7.25;4.15;;;6.80;99.90;;;;;;5136187;27;20312;-78
2024/02/08 00:56:43;;;;;;;9.18;3.50;;;6.80;99.90;;;;;;5135694;27;20612;-80
2024/02/08 00:59:15;;;;;;;9.00;4.32;;;6.80;99.90;;;;;;5137349;27;20659;-80
2024/02/08 01:01:42;;;;;;;7.70;3.70;;;6.70;99.90;;;;;;5137109;27;20517;-79
2024/02/08 01:04:09;;;;;;;10.32;4.25;;;6.70;99.90;;;;;;5137461;27;20595;-80
2024/02/08 01:06:40;;;;;;;4.25;3.85;;;6.70;99.90;;;;;;5136951;27;20226;-80
2024/02/08 01:09:08;;;;;;;9.90;5.28;;;6.70;99.90;;;;;;5137291;27;20572;-77
2024/02/08 01:11:35;;;;;;;8.57;3.90;;;6.70;99.90;;;;;;5136868;27;20615;-80
2024/02/08 01:14:03;;;;;;;10.82;5.38;;;6.70;99.90;;;;;;5136646;27;20253;-80
2024/02/08 01:16:31;;;;;;;9.07;4.47;;;6.70;99.90;;;;;;5135762;27;20226;-80
2024/02/08 01:18:59;;;;;;;13.52;5.32;;;6.70;99.90;;;;;;5130710;27;20222;-77
2024/02/08 01:21:26;;;;;;;7.85;4.30;;;6.70;99.90;;;;;;5115968;28;20717;-77
2024/02/08 01:23:56;;;;;;;9.60;4.80;;;6.70;99.90;;;;;;5116087;28;20238;-76
2024/02/08 01:26:26;;;;;;;10.30;3.92;;;6.70;99.90;;;;;;5116180;28;20230;-78
2024/02/08 01:28:54;;;;;;;9.50;4.32;;;6.70;99.90;;;;;;5119429;27;20278;-77
2024/02/08 01:31:21;;;;;;;11.25;4.28;;;6.70;99.90;;;;;;5136509;27;20245;-78
2024/02/08 01:33:54;;;;;;;9.77;4.38;;;6.70;99.90;;;;;;5136085;27;20228;-80
2024/02/08 01:36:23;;;;;;;10.02;4.43;;;6.60;99.90;;;;;;5136445;27;20228;-80
2024/02/08 01:38:51;;;;;;;7.47;4.78;;;6.60;99.90;;;;;;5137177;27;20221;-77
2024/02/08 01:41:21;;;;;;;9.85;5.32;;;6.60;99.90;;;;;;5136960;27;20228;-79
2024/02/08 01:43:48;;;;;;;11.25;4.32;;;6.70;99.90;;;;;;5136688;27;20226;-77
2024/02/08 01:46:16;;;;;;;8.30;3.65;;;6.70;99.90;;;;;;5135457;27;20229;-77
2024/02/08 01:48:44;;;;;;;8.75;4.30;;;6.60;99.90;;;;;;5134904;27;20229;-77
2024/02/08 01:51:13;;;;;;;7.40;4.15;;;6.60;99.90;;;;;;5134489;27;20605;-76
2024/02/08 01:53:41;;;;;;;10.38;4.82;;;6.60;99.90;;;;;;5136185;27;20222;-77
2024/02/08 01:56:11;;;;;;;9.88;3.97;;;6.50;99.90;;;;;;5136270;27;20232;-80
2024/02/08 01:58:41;;;;;;;6.03;4.07;;;6.50;99.90;;;;;;5136286;27;20242;-78
2024/02/08 02:01:10;;;;;;;6.38;3.95;;;6.50;99.90;;;;;;5127369;27;20221;-80
2024/02/08 02:03:38;;;;;;;8.68;3.70;;;6.50;99.90;;;;;;5135737;27;20731;-80
2024/02/08 02:06:08;;;;;;;10.88;3.75;;;6.50;99.90;;;;;;5135868;27;20684;-79
2024/02/08 02:08:35;;;;;;;7.18;3.53;;;6.50;99.90;;;;;;5136153;27;20309;-79
2024/02/08 02:11:10;;;;;;;7.75;3.60;;;6.50;99.90;;;;;;5137269;27;20222;-77
2024/02/08 02:13:41;;;;;;;8.98;4.35;;;6.50;99.90;;;;;;5134939;27;20687;-80
2024/02/08 02:16:08;;;;;;;6.43;5.28;;;6.50;99.90;;;;;;5136371;27;20731;-80
2024/02/08 02:18:36;;;;;;;11.38;3.67;;;6.50;99.90;;;;;;5132848;27;20222;-77
2024/02/08 02:21:03;;;;;;;9.52;4.50;;;6.50;99.90;;;;;;5115579;28;20234;-80
2024/02/08 02:23:32;;;;;;;7.43;3.70;;;6.40;99.90;;;;;;5115449;28;20234;-77
2024/02/08 02:26:06;;;;;;;11.63;4.05;;;6.40;99.90;;;;;;5116139;28;20242;-77
2024/02/08 02:28:33;;;;;;;10.73;3.72;;;6.40;99.90;;;;;;5116903;27;20568;-77
2024/02/08 02:31:05;;;;;;;5.55;3.75;;;6.40;99.90;;;;;;5135785;27;20230;-77
2024/02/08 02:33:35;;;;;;;7.63;4.10;;;6.40;99.90;;;;;;5136051;27;20695;-77
2024/02/08 02:36:02;;;;;;;8.38;3.33;;;6.40;99.90;;;;;;5135565;27;20221;-77
2024/02/08 02:38:32;;;;;;;7.10;3.65;;;6.40;99.90;;;;;;5135797;27;20562;-80
2024/02/08 02:41:06;;;;;;;12.18;3.38;;;6.30;99.90;;;;;;5135615;27;20233;-80
2024/02/08 02:43:34;;;;;;;8.50;3.80;;;6.30;99.90;;;;;;5136227;27;20237;-80
2024/02/08 02:46:05;;;;;;;8.48;4.28;;;6.30;99.90;;;;;;5135348;27;20229;-77
2024/02/08 02:48:34;;;;;;;4.93;3.80;;;6.30;99.90;;;;;;5136034;27;20245;-80
2024/02/08 02:51:01;;;;;;;4.45;3.00;;;6.30;99.90;;;;;;5149194;27;20225;-77
2024/02/08 02:53:30;;;;;;;4.13;3.20;;;6.30;99.90;;;;;;5155553;27;20256;-77
2024/02/08 02:55:58;;;;;;;3.92;3.25;;;6.30;99.90;;;;;;5155743;27;20308;-77
2024/02/08 02:58:26;;;;;;;5.00;3.20;;;6.30;99.90;;;;;;5149913;27;20222;-77
2024/02/08 03:01:04;;;;;;;6.15;3.67;;;6.30;99.90;;;;;;5117224;27;20256;-77
2024/02/08 03:03:37;;;;;;;5.40;3.08;;;6.40;99.90;;;;;;5115152;28;20237;-80
2024/02/08 03:06:13;;;;;;;10.43;4.70;;;6.30;99.90;;;;;;5114155;28;20226;-80
2024/02/08 03:08:42;;;;;;;6.72;3.53;;;6.30;99.90;;;;;;5114468;28;20243;-77
2024/02/08 03:11:10;;;;;;;6.88;3.65;;;6.30;99.90;;;;;;5114653;28;20218;-77
2024/02/08 03:13:46;;;;;;;7.40;3.92;;;6.30;99.90;;;;;;5135029;27;20321;-77
2024/02/08 03:16:14;;;;;;;7.47;3.78;;;6.30;99.90;;;;;;5134553;27;20291;-80
2024/02/08 03:18:43;;;;;;;5.50;3.20;;;6.30;99.90;;;;;;5131516;27;20222;-80
2024/02/08 03:21:17;;;;;;;4.18;2.83;;;6.30;99.90;;;;;;5114037;28;20280;-80
2024/02/08 03:23:45;;;;;;;6.53;3.30;;;6.30;99.90;;;;;;5113872;28;20240;-80
2024/02/08 03:26:13;;;;;;;6.65;3.20;;;6.30;99.90;;;;;;5113857;28;20366;-77
2024/02/08 03:28:42;;;;;;;6.45;3.50;;;6.30;99.90;;;;;;5119787;27;20226;-80
2024/02/08 03:31:10;;;;;;;8.35;4.32;;;6.40;99.90;;;;;;5154546;27;20225;-80
2024/02/08 03:33:39;;;;;;;4.50;3.08;;;6.40;99.90;;;;;;5155521;27;20625;-80
2024/02/08 03:36:07;;;;;;;5.30;3.10;;;6.40;99.90;;;;;;5154954;27;20253;-80
2024/02/08 03:38:34;;;;;;;5.65;3.28;;;6.40;99.90;;;;;;5154585;27;20225;-80
2024/02/08 03:41:02;;;;;;;6.75;3.00;;;6.40;99.90;;;;;;5154673;27;20228;-80
2024/02/08 03:43:29;;;;;;;7.75;3.42;;;6.40;99.90;;;;;;5154628;27;20236;-77
2024/02/08 03:45:57;;;;;;;6.53;2.78;;;6.40;99.90;;;;;;5154728;27;20222;-77
2024/02/08 03:48:25;;;;;;;8.77;3.80;;;6.50;99.90;;;;;;5155187;27;20245;-77
2024/02/08 03:50:52;;;;;;;11.70;4.25;;;6.40;99.90;;;;;;5154717;27;20217;-77
2024/02/08 03:53:20;;;;;;;7.75;4.10;;;6.40;99.90;;;;;;5154506;27;20298;-77
2024/02/08 03:55:48;;;;;;;6.03;4.55;;;6.40;99.90;;;;;;5154755;27;20221;-82
2024/02/08 03:58:15;;;;;;;6.88;4.38;;;6.40;99.90;;;;;;5145730;27;20217;-77
2024/02/08 04:00:46;;;;;;;7.10;3.75;;;6.40;99.90;;;;;;5118482;27;20226;-77
2024/02/08 04:03:23;;;;;;;19.55;10.93;;;6.40;99.90;;;;;;5113113;28;20258;-80
2024/02/08 04:05:59;;;;;;;10.98;3.90;;;6.40;99.90;;;;;;5113938;28;20314;-80
2024/02/08 04:09:06;;;;;;;7.97;4.25;;;6.30;99.90;;;;;;5113377;28;20241;-80
2024/02/08 04:55:26;;;;;;;10.15;3.65;;;6.50;99.90;;;;;;5113450;28;20226;-78
2024/02/08 04:57:57;;;;;;;9.68;3.90;;;6.50;99.90;;;;;;5113317;28;20575;-77
2024/02/08 05:00:27;;;;;;;5.55;2.90;;;6.50;99.90;;;;;;5113287;28;20254;-77
2024/02/08 05:02:56;;;;;;;8.70;3.42;;;6.50;99.90;;;;;;5113138;28;20252;-80
2024/02/08 05:05:24;;;;;;;6.07;3.70;;;6.50;99.90;;;;;;5113097;28;20227;-80
2024/02/08 05:07:53;;;;;;;6.80;3.70;;;6.60;99.90;;;;;;5112756;28;20231;-80
2024/02/08 05:10:20;;;;;;;7.55;3.80;;;6.60;99.90;;;;;;5113353;28;20313;-80
2024/02/08 05:12:49;;;;;;;6.30;3.10;;;6.60;99.90;;;;;;5112580;28;20234;-80
2024/02/08 05:15:16;;;;;;;11.18;4.97;;;6.60;99.90;;;;;;5112868;28;20261;-80
2024/02/08 05:17:43;;;;;;;9.90;5.03;;;6.60;99.90;;;;;;5112718;28;20222;-77
2024/02/08 05:20:12;;;;;;;10.90;5.53;;;6.60;99.90;;;;;;5113246;28;20222;-77
2024/02/08 05:22:40;;;;;;;6.35;4.50;;;6.60;99.90;;;;;;5112542;28;20229;-78
2024/02/08 05:25:11;;;;;;;8.50;5.25;;;6.60;99.90;;;;;;5113345;28;20238;-77
2024/02/08 05:27:38;;;;;;;9.88;5.15;;;6.60;99.90;;;;;;5115258;28;20227;-78
2024/02/08 05:30:07;;;;;;;11.38;6.22;;;6.70;99.90;;;;;;5116434;28;20305;-77
2024/02/08 05:32:36;;;;;;;10.80;7.65;;;6.70;99.90;;;;;;5115783;28;20230;-78
2024/02/08 05:35:04;;;;;;;13.70;7.05;;;6.60;99.90;;;;;;5117004;28;20231;-77
2024/02/08 05:37:32;;;;;;;7.63;4.25;;;6.60;99.90;;;;;;5120095;28;20230;-80
2024/02/08 05:40:00;;;;;;;9.38;5.22;;;6.70;99.90;;;;;;5119576;28;20260;-80
2024/02/08 05:42:28;;;;;;;8.38;3.10;;;6.60;99.90;;;;;;5116892;28;20284;-80
2024/02/08 05:45:18;;;;;;;6.70;4.43;;;6.70;99.90;;;;;;5115773;28;20219;-77
2024/02/08 05:47:45;;;;;;;10.15;4.57;;;6.70;99.90;;;;;;5115581;28;20214;-80
2024/02/08 05:50:21;;;;;;;6.25;4.07;;;6.70;99.90;;;;;;5116138;28;20676;-80
2024/02/08 05:52:51;;;;;;;7.65;4.35;;;6.60;99.90;;;;;;5115324;28;20547;-78
2024/02/08 05:55:20;;;;;;;10.73;4.85;;;6.60;99.90;;;;;;5115859;28;20226;-77
2024/02/08 05:57:51;;;;;;;7.18;4.55;;;6.60;99.90;;;;;;5115532;28;20218;-80
2024/02/08 06:00:32;;;;;;;10.85;5.45;;;6.60;99.90;;;;;;5115723;28;20598;-80
2024/02/08 06:03:06;;;;;;;10.13;5.68;;;6.60;99.90;;;;;;5115622;28;20272;-80
2024/02/08 06:05:33;;;;;;;13.85;6.75;;;6.60;99.90;;;;;;5115591;28;20268;-80
2024/02/08 06:08:02;;;;;;;47.97;26.98;;;6.60;99.90;;;;;;5115567;28;20242;-80
2024/02/08 06:10:45;;;;;;;33.25;18.35;;;6.50;99.90;;;;;;5115819;28;20219;-77
2024/02/08 06:13:14;;;;;;;24.65;12.38;;;6.60;99.90;;;;;;5116328;28;20226;-77
2024/02/08 06:15:43;;;;;;;20.52;10.98;;;6.60;99.90;;;;;;5115248;28;20215;-80
2024/02/08 06:18:19;;;;;;;14.93;10.10;;;6.60;99.90;;;;;;5115690;28;20291;-80
2024/02/08 06:20:57;;;;;;;10.93;6.88;;;6.60;99.90;;;;;;5115557;28;20218;-80
2024/02/08 06:23:34;;;;;;;10.80;6.22;;;6.60;99.90;;;;;;5114960;28;20261;-80
2024/02/08 06:28:47;;;;;;;12.13;4.63;;;6.70;99.90;;;;;;5114993;28;20230;-77
2024/02/08 06:31:15;;;;;;;10.55;3.90;;;6.70;99.90;;;;;;5113887;28;20215;-80
2024/02/08 06:34:09;;;;;;;8.55;3.95;;;6.70;99.90;;;;;;5114896;28;20544;-80
2024/02/08 06:36:30;;;;;;;9.38;4.50;;;6.80;99.90;;;;;;5114129;28;20280;-80
2024/02/08 06:39:02;;;;;;;9.25;3.67;;;6.80;99.90;;;;;;5115324;28;20218;-80
2024/02/08 06:41:51;;;;;;;10.13;4.53;;;6.80;99.90;;;;;;5114956;28;20679;-80
2024/02/08 07:39:46;;;;;;;5.72;4.82;;;6.80;99.90;;;;;;5114319;28;20275;-79
2024/02/08 07:42:20;;;;;;;10.85;5.65;;;6.80;99.90;;;;;;5113780;28;20283;-80
2024/02/08 07:44:54;;;;;;;8.20;6.47;;;6.70;99.90;;;;;;5114378;28;20548;-80
2024/02/08 07:47:24;;;;;;;11.00;5.45;;;6.70;99.90;;;;;;5113220;28;20267;-80
2024/02/08 07:49:57;;;;;;;8.80;6.45;;;6.80;99.90;;;;;;5113166;28;20222;-79
2024/02/08 07:52:25;;;;;;;7.85;6.32;;;6.80;99.90;;;;;;5113388;28;20219;-79
2024/02/08 07:55:14;;;;;;;7.43;5.75;;;6.70;99.90;;;;;;5113879;28;20214;-79
2024/02/08 07:57:46;;;;;;;8.13;5.90;;;6.80;99.90;;;;;;5113866;28;20324;-79
2024/02/08 08:00:32;;;;;;;11.32;7.03;;;6.70;99.90;;;;;;5112947;28;20230;-80
2024/02/08 08:02:59;;;;;;;11.80;7.07;;;6.70;99.90;;;;;;5113235;28;20242;-77
2024/02/08 08:05:31;;;;;;;13.38;8.35;;;6.70;99.90;;;;;;5114179;28;20317;-77
2024/02/08 08:08:01;;;;;;;11.30;6.25;;;6.70;99.90;;;;;;5113574;28;20309;-77
2024/02/08 08:10:33;;;;;;;8.15;7.35;;;6.60;99.90;;;;;;5113689;28;20303;-77
2024/02/08 08:13:06;;;;;;;10.27;7.55;;;6.60;99.90;;;;;;5113531;28;20231;-77
2024/02/08 08:15:49;;;;;;;8.85;7.50;;;6.70;99.90;;;;;;5113478;28;20214;-76
2024/02/08 08:18:23;;;;;;;8.80;7.80;;;6.60;99.90;;;;;;5113446;28;20211;-76
2024/02/08 08:20:57;;;;;;;11.65;7.97;;;6.60;99.90;;;;;;5113693;28;20229;-77
2024/02/08 08:23:26;;;;;;;8.70;7.40;;;6.60;99.90;;;;;;5113275;28;20219;-77
2024/02/08 08:29:02;;;;;;;9.77;7.65;;;6.70;99.90;;;;;;5065129;28;20210;-77
2024/02/08 08:31:38;;;;;;;10.27;8.43;;;6.70;99.90;;;;;;5113360;28;20214;-76
2024/02/08 08:36:57;;;;;;;7.70;6.75;;;6.80;99.90;;;;;;5111935;28;20214;-77
2024/02/08 08:42:16;;;;;;;11.40;7.97;;;6.80;99.90;;;;;;5113132;28;20319;-77
2024/02/08 08:44:48;;;;;;;12.07;8.40;;;6.90;99.90;;;;;;5113335;28;20242;-77
2024/02/08 08:47:16;;;;;;;11.40;8.40;;;6.90;99.90;;;;;;5113293;28;20585;-77
2024/02/08 08:49:43;;;;;;;12.77;9.25;;;6.90;99.90;;;;;;5113015;28;20241;-77
2024/02/08 08:52:23;;;;;;;11.27;8.45;;;6.90;99.90;;;;;;5112615;28;20228;-77
2024/02/08 08:54:56;;;;;;;14.25;10.40;;;6.90;99.90;;;;;;5113336;28;20219;-77
2024/02/08 08:57:25;;;;;;;15.57;13.10;;;7.00;99.90;;;;;;5113175;28;20234;-77
2024/02/08 08:59:53;;;;;;;12.32;10.77;;;7.00;99.90;;;;;;5113779;28;20280;-77
2024/02/08 09:02:20;;;;;;;13.60;10.40;;;7.00;99.90;;;;;;5116575;28;20574;-77
2024/02/08 09:04:47;;;;;;;12.52;10.45;;;7.00;99.90;;;;;;5116681;28;20280;-77
2024/02/08 09:07:16;;;;;;;18.98;11.15;;;7.00;99.90;;;;;;5116730;28;20700;-77
2024/02/08 09:10:00;;;;;;;16.35;10.88;;;7.00;99.90;;;;;;5117124;28;20630;-77
2024/02/08 09:12:36;;;;;;;18.45;11.13;;;7.00;99.90;;;;;;5116452;28;20301;-77
2024/02/08 09:15:19;;;;;;;15.35;11.20;;;7.00;99.90;;;;;;5115882;28;20226;-77
2024/02/08 09:17:51;;;;;;;17.30;12.80;;;6.90;99.90;;;;;;5117226;28;20753;-77
2024/02/08 09:20:23;;;;;;;15.10;11.27;;;6.90;99.90;;;;;;5116446;28;20230;-77
2024/02/08 09:22:52;;;;;;;20.73;12.77;;;6.90;99.90;;;;;;5116769;28;20284;-76
2024/02/08 09:25:19;;;;;;;17.17;12.57;;;6.90;99.90;;;;;;5116405;28;20276;-77
2024/02/08 09:27:53;;;;;;;13.48;10.68;;;6.90;99.90;;;;;;5116754;28;20222;-77
2024/02/08 09:30:39;;;;;;;18.13;12.02;;;6.90;99.90;;;;;;5114811;28;20291;-77
2024/02/08 09:33:14;;;;;;;14.02;11.73;;;6.90;99.90;;;;;;5116762;28;20223;-76
2024/02/08 09:35:44;;;;;;;17.42;10.50;;;6.80;99.90;;;;;;5116939;28;20267;-77
2024/02/08 09:38:18;;;;;;;15.15;10.18;;;6.90;99.90;;;;;;5116656;28;20298;-76
2024/02/08 09:40:50;;;;;;;19.35;10.75;;;6.90;99.90;;;;;;5117087;28;20224;-76
2024/02/08 09:43:17;;;;;;;14.15;9.90;;;6.90;99.90;;;;;;5116978;28;20293;-76
2024/02/08 09:45:46;;;;;;;18.65;10.75;;;6.90;99.90;;;;;;5117979;28;20555;-76
2024/02/08 09:48:25;;;;;;;19.00;10.25;;;6.90;99.90;;;;;;5122966;28;20237;-76
2024/02/08 09:50:59;;;;;;;14.27;10.50;;;7.00;99.90;;;;;;5120106;28;20234;-76
2024/02/08 09:53:30;;;;;;;13.15;9.48;;;7.10;99.90;;;;;;5116904;28;20288;-76
2024/02/08 09:56:15;;;;;;;18.85;10.95;;;7.20;99.90;;;;;;5116882;28;20218;-76
2024/02/08 09:58:55;;;;;;;20.40;11.15;;;7.30;99.90;;;;;;5116982;28;20210;-76
2024/02/08 10:01:24;;;;;;;14.35;12.85;;;7.30;99.90;;;;;;5116635;28;20214;-79
2024/02/08 10:04:04;;;;;;;13.68;10.50;;;7.20;99.90;;;;;;5116637;28;20242;-76
2024/02/08 10:06:38;;;;;;;15.35;10.80;;;7.20;99.90;;;;;;5116472;28;20675;-76
2024/02/08 10:09:34;;;;;;;14.82;10.55;;;7.20;99.90;;;;;;5116408;28;20218;-76
2024/02/08 10:11:58;;;;;;;15.38;11.32;;;7.20;99.90;;;;;;5114914;28;20265;-76
2024/02/08 10:14:26;;;;;;;15.00;11.02;;;7.20;99.90;;;;;;5116368;28;20225;-76
2024/02/08 10:16:58;;;;;;;15.00;11.40;;;7.20;99.90;;;;;;5116478;28;20546;-76
2024/02/08 10:19:36;;;;;;;14.07;11.50;;;7.30;99.90;;;;;;5116463;28;20302;-79
2024/02/08 10:22:17;;;;;;;16.20;11.23;;;7.30;99.90;;;;;;5114979;28;20233;-76
2024/02/08 10:27:29;;;;;;;14.48;10.30;;;7.30;99.90;;;;;;5115002;28;20305;-76
2024/02/08 10:29:58;;;;;;;14.90;10.63;;;7.40;99.90;;;;;;5114893;28;20234;-76
2024/02/08 10:32:27;;;;;;;20.90;10.35;;;7.40;99.90;;;;;;5115423;28;20301;-76
2024/02/08 10:35:13;;;;;;;14.32;10.77;;;7.50;99.90;;;;;;5114631;28;20230;-79
2024/02/08 10:37:49;;;;;;;16.15;9.50;;;7.60;99.90;;;;;;5114528;28;20226;-77
2024/02/08 10:40:32;;;;;;;13.02;10.15;;;7.70;99.90;;;;;;5115462;28;20586;-76
2024/02/08 10:43:00;;;;;;;15.80;10.32;;;7.70;99.90;;;;;;5114292;28;20227;-77
2024/02/08 10:45:32;;;;;;;12.02;9.98;;;7.70;99.90;;;;;;5115252;28;20215;-76
2024/02/08 10:48:03;;;;;;;16.70;10.73;;;7.70;99.90;;;;;;5114778;28;20345;-76
2024/02/08 10:50:34;;;;;;;16.70;11.73;;;7.80;99.90;;;;;;5114907;28;20223;-76
2024/02/08 10:53:16;;;;;;;13.80;10.88;;;7.80;99.90;;;;;;5114505;28;20275;-77
2024/02/08 10:55:52;;;;;;;15.88;10.68;;;7.90;99.90;;;;;;5115420;28;20219;-79
2024/02/08 10:58:21;;;;;;;18.45;11.95;;;8.00;99.90;;;;;;5105309;28;20225;-79
2024/02/08 11:01:06;;;;;;;18.42;10.55;;;8.00;99.90;;;;;;5115322;28;20668;-79
2024/02/08 11:03:36;;;;;;;14.95;9.85;;;8.10;99.90;;;;;;5115425;28;20225;-79
2024/02/08 11:06:25;;;;;;;15.32;10.85;;;8.10;99.90;;;;;;5114777;28;25628;-79
2024/02/08 11:09:09;;;;;;;15.20;10.27;;;8.20;99.90;;;;;;5114719;28;20237;-79
2024/02/08 11:11:40;;;;;;;20.65;11.95;;;8.20;99.90;;;;;;5115590;28;20276;-79
2024/02/08 11:14:09;;;;;;;15.38;11.48;;;8.20;99.90;;;;;;5115121;28;20269;-76
2024/02/08 11:16:41;;;;;;;13.75;9.57;;;8.30;99.90;;;;;;5115075;28;20215;-79
2024/02/08 11:19:16;;;;;;;17.05;10.35;;;8.30;99.90;;;;;;5114863;28;20287;-79
2024/02/08 11:21:44;;;;;;;15.10;10.00;;;8.30;99.90;;;;;;5115359;28;20222;-77
2024/02/08 11:24:27;;;;;;;14.95;11.18;;;8.40;99.90;;;;;;5114890;28;20514;-79
2024/02/08 11:26:57;;;;;;;19.33;11.45;;;8.40;99.90;;;;;;5114298;28;20250;-79
2024/02/08 11:29:27;;;;;;;13.15;10.07;;;8.40;99.90;;;;;;5115264;28;20276;-76
2024/02/08 11:31:56;;;;;;;24.70;15.45;;;8.50;99.90;;;;;;5114729;28;20672;-76
2024/02/08 11:34:33;;;;;;;13.40;9.43;;;8.50;99.90;;;;;;5139889;27;20217;-76
2024/02/08 11:37:06;;;;;;;13.00;10.30;;;8.50;99.90;;;;;;5138539;27;20221;-76
2024/02/08 11:39:34;;;;;;;16.25;11.13;;;8.60;99.90;;;;;;5155955;27;20727;-76
2024/02/08 11:42:16;;;;;;;17.80;12.35;;;8.60;99.90;;;;;;5144656;27;20232;-76
2024/02/08 11:44:43;;;;;;;18.85;11.30;;;8.60;99.90;;;;;;5135034;27;20217;-76
2024/02/08 11:47:22;;;;;;;18.45;10.63;;;8.60;99.90;;;;;;5134025;27;20305;-79
2024/02/08 11:49:54;;;;;;;14.00;9.45;;;8.50;99.90;;;;;;5139043;27;20233;-77
2024/02/08 11:52:23;;;;;;;16.40;10.77;;;8.60;99.90;;;;;;5157149;27;20236;-76
2024/02/08 11:55:05;;;;;;;17.83;11.30;;;8.60;99.90;;;;;;5155844;27;20555;-76
2024/02/08 11:57:37;;;;;;;15.70;11.93;;;8.70;99.90;;;;;;5156246;27;20243;-76
2024/02/08 12:00:15;;;;;;;16.02;10.23;;;8.70;99.90;;;;;;5155347;27;20252;-77
2024/02/08 12:02:47;;;;;;;12.30;10.45;;;8.70;99.90;;;;;;5155937;27;20225;-76
2024/02/08 12:05:20;;;;;;;12.20;10.25;;;8.80;99.90;;;;;;5155785;27;20244;-76
2024/02/08 12:07:48;;;;;;;18.27;12.15;;;8.90;99.90;;;;;;5144047;27;20609;-76
2024/02/08 12:10:16;;;;;;;14.07;10.05;;;8.90;99.90;;;;;;5134830;27;20237;-76
2024/02/08 12:12:45;;;;;;;13.23;9.85;;;9.00;99.90;;;;;;5136316;27;20226;-76
2024/02/08 12:15:13;;;;;;;17.95;10.40;;;9.00;99.90;;;;;;5136678;28;20268;-77
2024/02/08 12:17:44;;;;;;;21.77;13.80;;;9.00;99.90;;;;;;5133613;28;20225;-79
2024/02/08 12:20:16;;;;;;;17.35;11.68;;;9.00;99.90;;;;;;5131574;27;20312;-80
2024/02/08 12:22:43;;;;;;;13.48;9.90;;;9.00;99.90;;;;;;5147557;27;20236;-76
2024/02/08 12:25:15;;;;;;;14.02;9.43;;;9.10;99.90;;;;;;5128328;28;20222;-77
2024/02/08 12:27:48;;;;;;;18.90;11.52;;;9.10;99.90;;;;;;5146448;28;20308;-79
2024/02/08 12:30:28;;;;;;;15.98;10.48;;;9.10;99.90;;;;;;5140355;28;20354;-79
2024/02/08 12:32:58;;;;;;;19.08;11.40;;;9.10;99.90;;;;;;5133585;27;20317;-79
2024/02/08 12:35:27;;;;;;;17.20;10.68;;;9.20;99.90;;;;;;5146896;27;20247;-80
2024/02/08 12:37:58;;;;;;;18.40;11.38;;;9.20;99.90;;;;;;5150266;27;20214;-80
2024/02/08 12:40:29;;;;;;;14.25;10.50;;;9.20;99.90;;;;;;5150219;27;20217;-76
2024/02/08 12:42:57;;;;;;;17.27;11.77;;;9.20;99.90;;;;;;5152417;27;20217;-76
2024/02/08 12:45:28;;;;;;;13.50;10.73;;;9.20;99.90;;;;;;5161762;27;20236;-76
2024/02/08 12:47:57;;;;;;;17.50;11.02;;;9.20;99.90;;;;;;5164206;27;20278;-79
2024/02/08 12:50:25;;;;;;;12.60;9.57;;;9.20;99.90;;;;;;5149985;27;20226;-79
2024/02/08 12:52:55;;;;;;;16.15;8.80;;;9.20;99.90;;;;;;5146664;27;20229;-78
2024/02/08 12:55:29;;;;;;;15.25;11.38;;;9.20;99.90;;;;;;5147704;27;20623;-75
2024/02/08 12:58:01;;;;;;;15.05;10.60;;;9.20;99.90;;;;;;5148694;27;20224;-80
2024/02/08 13:00:33;;;;;;;14.05;8.98;;;9.20;99.90;;;;;;5167783;27;20715;-76
2024/02/08 13:03:05;;;;;;;13.90;8.90;;;9.20;99.90;;;;;;5155893;27;20220;-81
2024/02/08 13:05:36;;;;;;;13.55;9.07;;;9.10;99.90;;;;;;5159757;27;20248;-78
2024/02/08 13:08:06;;;;;;;19.35;10.23;;;9.20;99.90;;;;;;5149264;27;20209;-79
2024/02/08 13:10:36;;;;;;;11.93;8.88;;;9.20;99.90;;;;;;5156674;27;20260;-75
2024/02/08 13:13:10;;;;;;;14.35;8.65;;;9.20;99.90;;;;;;5145991;27;20233;-76
2024/02/08 13:15:37;;;;;;;14.73;9.10;;;9.20;99.90;;;;;;5146967;27;20214;-76
2024/02/08 13:18:09;;;;;;;15.48;9.10;;;9.20;99.90;;;;;;5153963;27;20218;-76
2024/02/08 13:20:36;;;;;;;14.30;9.13;;;9.20;99.90;;;;;;5148322;27;20218;-76
2024/02/08 13:23:04;;;;;;;15.43;8.52;;;9.20;99.90;;;;;;5148230;27;20230;-80
2024/02/08 13:25:31;;;;;;;12.48;8.27;;;9.20;99.90;;;;;;5159806;27;20218;-79
2024/02/08 13:27:59;;;;;;;11.93;9.00;;;9.20;99.90;;;;;;5155037;27;20222;-76
2024/02/08 13:30:29;;;;;;;15.18;8.60;;;9.20;99.90;;;;;;5141731;27;20233;-80
2024/02/08 13:32:58;;;;;;;14.48;9.15;;;9.20;99.90;;;;;;5148574;27;20285;-80
2024/02/08 13:35:28;;;;;;;13.05;9.13;;;9.20;99.90;;;;;;5143797;27;20753;-80
2024/02/08 13:37:57;;;;;;;16.50;9.10;;;9.30;99.90;;;;;;5138694;27;20667;-80
2024/02/08 13:40:25;;;;;;;11.35;7.68;;;9.20;99.90;;;;;;5131329;27;20240;-80
2024/02/08 13:42:58;;;;;;;15.48;8.30;;;9.20;99.90;;;;;;5133514;27;20223;-79
2024/02/08 13:45:28;;;;;;;14.45;8.43;;;9.20;99.90;;;;;;5136879;27;20226;-80
2024/02/08 13:47:56;;;;;;;12.52;7.43;;;9.20;99.90;;;;;;5138593;27;20228;-80
2024/02/08 13:50:28;;;;;;;16.20;8.63;;;9.20;99.90;;;;;;5138738;27;20221;-80
2024/02/08 13:53:01;;;;;;;15.10;7.13;;;9.20;99.90;;;;;;5161087;27;20217;-80
2024/02/08 13:55:31;;;;;;;13.80;7.85;;;9.20;99.90;;;;;;5116670;28;20230;-77
2024/02/08 13:58:00;;;;;;;16.73;9.43;;;9.20;99.90;;;;;;5133980;27;20221;-76
2024/02/08 14:00:31;;;;;;;13.00;8.20;;;9.20;99.90;;;;;;5138692;27;20272;-80
2024/02/08 14:03:00;;;;;;;14.98;8.77;;;9.20;99.90;;;;;;5137606;27;20233;-80
2024/02/08 14:05:30;;;;;;;13.18;8.45;;;9.10;99.90;;;;;;5142536;27;20228;-80
2024/02/08 14:07:57;;;;;;;14.77;8.00;;;9.10;99.90;;;;;;5158165;27;20229;-80
2024/02/08 14:10:31;;;;;;;10.15;6.68;;;9.10;99.90;;;;;;5152035;27;20248;-80
2024/02/08 14:13:05;;;;;;;14.38;7.90;;;9.10;99.90;;;;;;5151912;27;20226;-80
2024/02/08 14:15:38;;;;;;;13.80;7.43;;;9.10;99.90;;;;;;5144651;27;20217;-80
2024/02/08 14:18:22;;;;;;;15.27;8.15;;;9.10;99.90;;;;;;5138682;27;20222;-80
2024/02/08 14:20:56;;;;;;;17.13;9.05;;;9.10;99.90;;;;;;5116814;28;20245;-81
2024/02/08 14:23:32;;;;;;;13.75;8.82;;;9.20;99.90;;;;;;5148265;27;20301;-80
2024/02/08 14:26:09;;;;;;;13.43;8.27;;;9.10;99.90;;;;;;5125623;27;20218;-81
2024/02/08 14:28:42;;;;;;;16.52;9.70;;;9.20;99.90;;;;;;5137322;27;20222;-80
2024/02/08 14:31:10;;;;;;;16.55;10.40;;;9.20;99.90;;;;;;5147793;27;20229;-76
2024/02/08 14:33:41;;;;;;;13.25;9.25;;;9.20;99.90;;;;;;5149358;27;20308;-80
2024/02/08 14:36:09;;;;;;;18.80;10.30;;;9.20;99.90;;;;;;5157233;27;20670;-77
2024/02/08 14:38:37;;;;;;;12.57;7.93;;;9.20;99.90;;;;;;5142941;27;20230;-77
2024/02/08 14:41:05;;;;;;;17.52;9.90;;;9.20;99.90;;;;;;5136109;27;20221;-76
2024/02/08 14:43:41;;;;;;;15.68;9.73;;;9.20;99.90;;;;;;5136790;27;20222;-77
2024/02/08 14:46:17;;;;;;;16.10;10.18;;;9.30;99.90;;;;;;5156719;27;20227;-77
2024/02/08 14:48:51;;;;;;;16.15;10.27;;;9.20;99.90;;;;;;5156179;27;20528;-76
2024/02/08 14:51:30;;;;;;;13.25;8.50;;;9.20;99.90;;;;;;5139797;27;20214;-77
2024/02/08 14:53:59;;;;;;;11.20;8.30;;;9.20;99.90;;;;;;5130259;27;20313;-78
2024/02/08 14:56:26;;;;;;;16.25;10.07;;;9.20;99.90;;;;;;5148221;27;20217;-77
2024/02/08 14:59:09;;;;;;;17.25;12.07;;;9.20;99.90;;;;;;5139449;27;20297;-77
2024/02/08 15:01:39;;;;;;;25.23;14.30;;;9.20;99.90;;;;;;5136504;27;20218;-77
2024/02/08 15:04:15;;;;;;;26.98;14.55;;;9.10;99.90;;;;;;5129417;27;20671;-77